Time;durP1;ratioP1;P1;durP2;ratioP2;P2;SDS_P1;SDS_P2;PMS_P1;PMS_P2;Temp;Humidity;BMP_temperature;BMP_pressure;BME280_temperature;BME280_humidity;BME280_pressure;Samples;Min_cycle;Max_cycle;Signal;HPM_P1;HPM_P2
2021/07/15 00:01:53;;;;;;;;;;;20.30;99.90;;;;;;5092641;28;19919;-62
2021/07/15 00:04:19;;;;;;;;;;;20.40;99.90;;;;;;5091813;28;19908;-62
2021/07/15 00:06:44;;;;;;;;;;;20.40;99.90;;;;;;5076519;28;19908;-63
2021/07/15 00:09:12;;;;;;;;;;;20.40;99.90;;;;;;5092590;28;19918;-62
2021/07/15 00:11:39;;;;;;;;;;;20.30;99.90;;;;;;5092884;28;20279;-62
2021/07/15 00:14:05;;;;;;;;;;;20.40;99.90;;;;;;5093055;28;20255;-62
2021/07/15 00:16:30;;;;;;;;;;;20.40;99.90;;;;;;5092328;28;20340;-62
2021/07/15 00:18:56;;;;;;;;;;;20.30;99.90;;;;;;5092835;28;19908;-62
2021/07/15 00:21:22;;;;;;;;;;;20.40;99.90;;;;;;5092315;28;19920;-63
2021/07/15 00:23:48;;;;;;;;;;;20.30;99.90;;;;;;5073694;28;20003;-62
2021/07/15 00:26:14;;;;;;;;;;;20.40;99.90;;;;;;5073751;28;19919;-63
2021/07/15 00:28:40;;;;;;;;;;;20.30;99.90;;;;;;5092536;28;20007;-62
2021/07/15 00:31:06;;;;;;;;;;;20.30;99.90;;;;;;5073912;28;20387;-62
2021/07/15 00:33:32;;;;;;;;;;;20.30;99.90;;;;;;5092192;28;19931;-62
2021/07/15 00:35:58;;;;;;;;;;;20.30;99.90;;;;;;5073477;28;20354;-62
2021/07/15 00:38:24;;;;;;;;;;;20.30;99.90;;;;;;5074354;28;19915;-63
2021/07/15 00:40:49;;;;;;;;;;;20.30;99.90;;;;;;5092124;28;19965;-62
2021/07/15 00:43:15;;;;;;;;;;;20.20;99.90;;;;;;5086947;28;20267;-62
2021/07/15 00:45:40;;;;;;;;;;;20.30;99.90;;;;;;5091698;28;19912;-62
2021/07/15 00:48:06;;;;;;;;;;;20.20;99.90;;;;;;5092049;28;20117;-62
2021/07/15 00:50:32;;;;;;;;;;;20.20;99.90;;;;;;5073984;28;19912;-61
2021/07/15 00:52:57;;;;;;;;;;;20.20;99.90;;;;;;5091930;28;19916;-62
2021/07/15 00:55:26;;;;;;;;;;;20.20;99.90;;;;;;5091280;28;19916;-62
2021/07/15 00:57:52;;;;;;;;;;;20.20;99.90;;;;;;5073103;28;19912;-63
2021/07/15 01:00:18;;;;;;;;;;;20.20;99.90;;;;;;5089093;28;19916;-62
2021/07/15 01:02:44;;;;;;;;;;;20.20;99.90;;;;;;5089332;28;19935;-63
2021/07/15 01:05:11;;;;;;;;;;;20.20;99.90;;;;;;5090684;28;19927;-62
2021/07/15 01:07:37;;;;;;;;;;;20.20;99.90;;;;;;5073267;28;19908;-62
2021/07/15 01:10:04;;;;;;;;;;;20.20;99.90;;;;;;5091425;28;19912;-61
2021/07/15 01:12:35;;;;;;;;;;;20.10;99.90;;;;;;5091478;28;19955;-62
2021/07/15 01:15:22;;;;;;;;;;;20.10;99.90;;;;;;5089076;28;19908;-62
2021/07/15 01:18:06;;;;;;;;;;;20.10;99.90;;;;;;5060503;22;19936;-82
2021/07/15 01:20:50;;;;;;;;;;;20.10;99.90;;;;;;5030241;28;19996;-83
2021/07/15 01:23:34;;;;;;;;;;;20.10;99.90;;;;;;5050825;28;19909;-81
2021/07/15 01:26:06;;;;;;;;;;;20.10;99.90;;;;;;5035372;28;19909;-83
2021/07/15 01:28:50;;;;;;;;;;;20.00;99.90;;;;;;5036062;28;19912;-82
2021/07/15 01:31:16;;;;;;;;;;;20.00;99.90;;;;;;5046859;28;19908;-82
2021/07/15 01:33:42;;;;;;;;;;;20.10;99.90;;;;;;5035923;28;19932;-83
2021/07/15 01:36:13;;;;;;;;;;;20.10;99.90;;;;;;5035576;28;20371;-82
2021/07/15 01:38:40;;;;;;;;;;;20.10;99.90;;;;;;5053866;28;19909;-83
2021/07/15 01:41:07;;;;;;;;;;;20.10;99.90;;;;;;5054040;28;20276;-80
2021/07/15 01:43:41;;;;;;;;;;;20.10;99.90;;;;;;5029597;28;19909;-82
2021/07/15 01:46:07;;;;;;;;;;;20.10;99.90;;;;;;5052227;28;19909;-82
2021/07/15 01:48:32;;;;;;;;;;;20.00;99.90;;;;;;5035882;28;19909;-83
2021/07/15 01:50:59;;;;;;;;;;;20.00;99.90;;;;;;5053575;28;20467;-82
2021/07/15 01:53:24;;;;;;;;;;;20.00;99.90;;;;;;5031192;28;20372;-82
2021/07/15 01:55:51;;;;;;;;;;;20.00;99.90;;;;;;5045233;28;19909;-81
2021/07/15 01:58:17;;;;;;;;;;;20.00;99.90;;;;;;5034594;28;19908;-81
2021/07/15 02:00:43;;;;;;;;;;;20.00;99.90;;;;;;5031007;28;19959;-82
2021/07/15 02:03:09;;;;;;;;;;;20.00;99.90;;;;;;5032788;28;20438;-82
2021/07/15 02:05:35;;;;;;;;;;;20.00;99.90;;;;;;5033191;28;20016;-82
2021/07/15 02:08:03;;;;;;;;;;;20.00;99.90;;;;;;5033295;28;19988;-81
2021/07/15 02:10:29;;;;;;;;;;;20.00;99.90;;;;;;5032395;28;20307;-83
2021/07/15 02:12:55;;;;;;;;;;;19.90;99.90;;;;;;5051654;28;19920;-80
2021/07/15 02:15:23;;;;;;;;;;;19.90;99.90;;;;;;5050398;28;20582;-81
2021/07/15 02:17:48;;;;;;;;;;;20.00;99.90;;;;;;5051342;28;19985;-80
2021/07/15 02:20:16;;;;;;;;;;;20.00;99.90;;;;;;5034389;28;21122;-80
2021/07/15 02:22:43;;;;;;;;;;;19.90;99.90;;;;;;5032476;28;20023;-82
2021/07/15 02:25:09;;;;;;;;;;;19.90;99.90;;;;;;5063388;28;20390;-82
2021/07/15 02:27:35;;;;;;;;;;;19.90;99.90;;;;;;5062798;28;19912;-82
2021/07/15 02:30:01;;;;;;;;;;;19.90;99.90;;;;;;5047363;28;19912;-82
2021/07/15 02:32:26;;;;;;;;;;;19.90;99.90;;;;;;5061760;28;19909;-82
2021/07/15 02:34:53;;;;;;;;;;;19.90;99.90;;;;;;5035361;28;19917;-82
2021/07/15 02:37:27;;;;;;;;;;;19.90;99.90;;;;;;5035875;28;20344;-82
2021/07/15 02:39:53;;;;;;;;;;;19.90;99.90;;;;;;5041962;28;20007;-82
2021/07/15 02:42:19;;;;;;;;;;;19.90;99.90;;;;;;5034702;28;19948;-81
2021/07/15 02:44:45;;;;;;;;;;;20.00;99.90;;;;;;5060179;28;19912;-81
2021/07/15 02:47:11;;;;;;;;;;;20.00;99.90;;;;;;5034724;28;19913;-82
2021/07/15 02:49:40;;;;;;;;;;;19.90;99.90;;;;;;5041713;28;20015;-80
2021/07/15 02:52:06;;;;;;;;;;;19.90;99.90;;;;;;5040851;28;20318;-81
2021/07/15 02:54:32;;;;;;;;;;;19.90;99.90;;;;;;5058129;28;19916;-81
2021/07/15 02:57:05;;;;;;;;;;;19.90;99.90;;;;;;5038403;28;19909;-82
2021/07/15 02:59:39;;;;;;;;;;;19.90;99.90;;;;;;5034696;28;19908;-83
2021/07/15 03:02:08;;;;;;;;;;;19.90;99.90;;;;;;5036683;28;19966;-81
2021/07/15 03:04:37;;;;;;;;;;;19.90;99.90;;;;;;5033326;28;19909;-81
2021/07/15 03:07:03;;;;;;;;;;;19.90;99.90;;;;;;5038790;28;19909;-82
2021/07/15 03:09:30;;;;;;;;;;;19.80;99.90;;;;;;5038787;28;19952;-81
2021/07/15 03:11:59;;;;;;;;;;;19.80;99.90;;;;;;5037494;28;19909;-80
2021/07/15 03:14:33;;;;;;;;;;;19.80;99.90;;;;;;5038434;28;19912;-83
2021/07/15 03:16:59;;;;;;;;;;;19.80;99.90;;;;;;5054876;28;19917;-82
2021/07/15 03:19:32;;;;;;;;;;;19.80;99.90;;;;;;5034813;28;19955;-83
2021/07/15 03:22:02;;;;;;;;;;;19.70;99.90;;;;;;5034154;28;19970;-83
2021/07/15 03:24:30;;;;;;;;;;;19.70;99.90;;;;;;5033575;28;19938;-82
2021/07/15 03:26:57;;;;;;;;;;;19.70;99.90;;;;;;5025625;28;19962;-81
2021/07/15 03:29:23;;;;;;;;;;;19.60;99.90;;;;;;5037956;28;19909;-83
2021/07/15 03:31:48;;;;;;;;;;;19.60;99.90;;;;;;5034201;28;19909;-81
2021/07/15 03:34:14;;;;;;;;;;;19.60;99.90;;;;;;5032796;28;19917;-82
2021/07/15 03:36:46;;;;;;;;;;;19.60;99.90;;;;;;5049021;28;19931;-81
2021/07/15 03:39:13;;;;;;;;;;;19.60;99.90;;;;;;5034623;28;19930;-81
2021/07/15 03:41:39;;;;;;;;;;;19.60;99.90;;;;;;5033633;28;20277;-80
2021/07/15 03:44:04;;;;;;;;;;;19.60;99.90;;;;;;5046685;28;19920;-81
2021/07/15 03:46:30;;;;;;;;;;;19.50;99.90;;;;;;5051685;28;20273;-80
2021/07/15 03:48:56;;;;;;;;;;;19.50;99.90;;;;;;5033461;28;20488;-81
2021/07/15 03:51:22;;;;;;;;;;;19.50;99.90;;;;;;5033945;28;19916;-80
2021/07/15 03:53:48;;;;;;;;;;;19.50;99.90;;;;;;5033598;28;20399;-82
2021/07/15 03:56:14;;;;;;;;;;;19.50;99.90;;;;;;5034390;28;19909;-82
2021/07/15 03:58:41;;;;;;;;;;;19.50;99.90;;;;;;5033002;28;20009;-82
2021/07/15 04:01:07;;;;;;;;;;;19.50;99.90;;;;;;5037639;28;19924;-80
2021/07/15 04:03:33;;;;;;;;;;;19.50;99.90;;;;;;5036269;28;19962;-82
2021/07/15 04:06:00;;;;;;;;;;;19.50;99.90;;;;;;5038007;28;19962;-83
2021/07/15 04:08:26;;;;;;;;;;;19.50;99.90;;;;;;5038066;28;20203;-83
2021/07/15 04:10:52;;;;;;;;;;;19.50;99.90;;;;;;5037848;28;19913;-83
2021/07/15 04:13:19;;;;;;;;;;;19.50;99.90;;;;;;5039239;28;20383;-82
2021/07/15 04:15:50;;;;;;;;;;;19.50;99.90;;;;;;5037012;28;19996;-83
2021/07/15 04:18:16;;;;;;;;;;;19.60;99.90;;;;;;5051473;28;20016;-83
2021/07/15 04:20:43;;;;;;;;;;;19.60;99.90;;;;;;5135874;23;19925;-47
2021/07/15 04:23:09;;;;;;;;;;;19.50;99.90;;;;;;5092452;28;20405;-46
2021/07/15 04:25:35;;;;;;;;;;;19.50;99.90;;;;;;5092336;28;19948;-49
2021/07/15 04:28:02;;;;;;;;;;;19.50;99.90;;;;;;5069505;28;20002;-46
2021/07/15 04:30:28;;;;;;;;;;;19.50;99.90;;;;;;5062481;28;20353;-48
2021/07/15 04:32:54;;;;;;;;;;;19.50;99.90;;;;;;5086596;28;19908;-46
2021/07/15 04:35:20;;;;;;;;;;;19.60;99.90;;;;;;5080088;28;20750;-47
2021/07/15 04:37:46;;;;;;;;;;;19.60;99.90;;;;;;5086983;28;19998;-47
2021/07/15 04:40:13;;;;;;;;;;;19.60;99.90;;;;;;5080616;28;19916;-49
2021/07/15 04:42:39;;;;;;;;;;;19.60;99.90;;;;;;5086440;28;20328;-50
2021/07/15 04:45:06;;;;;;;;;;;19.60;99.90;;;;;;5081399;28;19912;-47
2021/07/15 04:47:32;;;;;;;;;;;19.60;99.90;;;;;;5080247;28;19909;-47
2021/07/15 04:49:58;;;;;;;;;;;19.60;99.90;;;;;;5086620;28;19908;-46
2021/07/15 04:52:23;;;;;;;;;;;19.70;99.90;;;;;;5080258;28;20389;-48
2021/07/15 04:54:50;;;;;;;;;;;19.70;99.90;;;;;;5086947;28;20057;-47
2021/07/15 04:57:15;;;;;;;;;;;19.80;99.90;;;;;;5075509;28;19908;-52
2021/07/15 04:59:41;;;;;;;;;;;19.80;99.90;;;;;;5086831;28;19930;-46
2021/07/15 05:02:07;;;;;;;;;;;19.80;99.90;;;;;;5080846;28;19912;-48
2021/07/15 05:04:33;;;;;;;;;;;19.90;99.90;;;;;;5079876;28;20011;-48
2021/07/15 05:06:58;;;;;;;;;;;19.90;99.90;;;;;;5086321;28;19939;-49
2021/07/15 05:09:24;;;;;;;;;;;19.90;99.90;;;;;;5080040;28;19955;-48
2021/07/15 05:11:50;;;;;;;;;;;19.90;99.90;;;;;;5086588;28;19913;-48
2021/07/15 05:14:15;;;;;;;;;;;20.00;99.90;;;;;;5079708;28;19909;-48
2021/07/15 05:16:40;;;;;;;;;;;20.00;99.90;;;;;;5068078;28;19915;-47
2021/07/15 05:19:06;;;;;;;;;;;20.10;99.90;;;;;;5075675;28;19936;-50
2021/07/15 05:21:32;;;;;;;;;;;20.10;99.90;;;;;;5084032;28;19919;-46
2021/07/15 05:23:57;;;;;;;;;;;20.10;99.90;;;;;;5080789;28;19944;-48
2021/07/15 05:26:23;;;;;;;;;;;20.20;99.90;;;;;;5085819;28;20035;-46
2021/07/15 05:28:50;;;;;;;;;;;20.20;99.90;;;;;;5079492;28;19931;-48
2021/07/15 05:31:15;;;;;;;;;;;20.20;99.90;;;;;;5083036;28;19931;-51
2021/07/15 05:33:41;;;;;;;;;;;20.10;99.90;;;;;;5081627;28;19908;-49
2021/07/15 05:36:08;;;;;;;;;;;20.10;99.90;;;;;;5081659;28;19908;-50
2021/07/15 05:38:34;;;;;;;;;;;20.10;99.90;;;;;;5083498;28;19908;-51
2021/07/15 05:40:59;;;;;;;;;;;20.10;99.90;;;;;;5080444;28;20294;-48
2021/07/15 05:43:25;;;;;;;;;;;20.20;99.90;;;;;;5085602;28;19912;-52
2021/07/15 05:45:50;;;;;;;;;;;20.30;99.90;;;;;;5078930;28;19978;-47
2021/07/15 05:48:16;;;;;;;;;;;20.40;99.90;;;;;;5082724;28;19908;-46
2021/07/15 05:50:41;;;;;;;;;;;20.40;99.90;;;;;;5081702;28;19987;-51
2021/07/15 05:53:07;;;;;;;;;;;20.50;99.90;;;;;;5081487;28;20319;-49
2021/07/15 05:55:32;;;;;;;;;;;20.60;99.90;;;;;;5083264;28;20357;-50
2021/07/15 05:57:58;;;;;;;;;;;20.70;99.90;;;;;;5079969;28;19909;-53
2021/07/15 06:00:23;;;;;;;;;;;20.70;99.90;;;;;;5085525;28;19913;-53
2021/07/15 06:02:49;;;;;;;;;;;20.70;99.90;;;;;;5078830;28;20070;-47
2021/07/15 06:05:14;;;;;;;;;;;20.70;99.90;;;;;;5082238;28;19916;-50
2021/07/15 06:07:39;;;;;;;;;;;20.80;99.90;;;;;;5081423;28;20022;-51
2021/07/15 06:10:05;;;;;;;;;;;20.80;99.90;;;;;;5080834;28;19908;-49
2021/07/15 06:12:31;;;;;;;;;;;20.90;99.90;;;;;;5083268;28;19995;-49
2021/07/15 06:14:56;;;;;;;;;;;21.00;99.90;;;;;;5079386;28;19947;-48
2021/07/15 06:17:22;;;;;;;;;;;21.00;99.90;;;;;;5067366;28;19916;-49
2021/07/15 06:19:48;;;;;;;;;;;21.00;99.90;;;;;;5077939;28;20382;-50
2021/07/15 06:22:14;;;;;;;;;;;21.10;99.90;;;;;;5081204;28;20006;-47
2021/07/15 06:24:39;;;;;;;;;;;21.10;99.90;;;;;;5063974;28;19999;-46
2021/07/15 06:27:05;;;;;;;;;;;21.10;99.90;;;;;;5081051;28;19908;-47
2021/07/15 06:29:30;;;;;;;;;;;21.20;99.90;;;;;;5081896;28;20038;-50
2021/07/15 06:31:56;;;;;;;;;;;21.30;99.90;;;;;;5079527;28;20387;-46
2021/07/15 06:34:21;;;;;;;;;;;21.30;99.90;;;;;;5081899;28;19908;-50
2021/07/15 06:36:47;;;;;;;;;;;21.40;99.90;;;;;;5080876;28;19909;-52
2021/07/15 06:39:12;;;;;;;;;;;21.40;99.90;;;;;;5063327;28;19989;-49
2021/07/15 06:41:38;;;;;;;;;;;21.40;99.90;;;;;;5081847;28;19965;-53
2021/07/15 06:44:06;;;;;;;;;;;21.50;99.90;;;;;;5080253;28;21391;-51
2021/07/15 06:46:33;;;;;;;;;;;21.50;99.90;;;;;;5081655;28;20010;-48
2021/07/15 06:48:59;;;;;;;;;;;21.60;99.90;;;;;;5079713;28;19915;-47
2021/07/15 06:51:24;;;;;;;;;;;21.80;99.90;;;;;;5082257;28;19908;-50
2021/07/15 06:53:50;;;;;;;;;;;21.90;99.90;;;;;;5080203;28;19932;-53
2021/07/15 06:56:16;;;;;;;;;;;22.10;99.90;;;;;;5081525;28;19912;-47
2021/07/15 06:58:41;;;;;;;;;;;22.20;99.90;;;;;;5081777;28;20066;-52
2021/07/15 07:01:08;;;;;;;;;;;22.30;99.90;;;;;;5080896;28;20334;-48
2021/07/15 07:03:38;;;;;;;;;;;22.50;99.90;;;;;;5081746;28;19908;-52
2021/07/15 07:06:03;;;;;;;;;;;22.50;99.90;;;;;;5079408;28;19909;-50
2021/07/15 07:08:29;;;;;;;;;;;22.70;99.90;;;;;;5081962;28;19935;-52
2021/07/15 07:10:54;;;;;;;;;;;22.90;99.90;;;;;;5080168;28;19933;-51
2021/07/15 07:13:20;;;;;;;;;;;23.00;99.90;;;;;;5063620;28;19946;-47
2021/07/15 07:15:45;;;;;;;;;;;23.00;99.90;;;;;;5081572;28;19908;-47
2021/07/15 07:18:11;;;;;;;;;;;23.00;99.90;;;;;;5103396;22;19924;-57
2021/07/15 07:20:36;;;;;;;;;;;23.00;99.90;;;;;;5089697;28;20503;-60
2021/07/15 07:23:02;;;;;;;;;;;22.80;99.90;;;;;;5089565;28;19908;-60
2021/07/15 07:25:29;;;;;;;;;;;22.60;99.90;;;;;;5082689;28;19915;-60
2021/07/15 07:27:54;;;;;;;;;;;22.60;99.90;;;;;;5071516;28;19930;-60
2021/07/15 07:30:20;;;;;;;;;;;22.70;99.90;;;;;;5089473;28;20356;-59
2021/07/15 07:32:46;;;;;;;;;;;22.80;99.90;;;;;;5089763;28;20025;-60
2021/07/15 07:35:12;;;;;;;;;;;23.00;99.90;;;;;;5092755;28;20381;-60
2021/07/15 07:37:38;;;;;;;;;;;22.90;99.90;;;;;;5075426;28;19991;-60
2021/07/15 07:40:05;;;;;;;;;;;22.90;99.90;;;;;;5093284;28;19990;-60
2021/07/15 07:42:30;;;;;;;;;;;22.90;99.90;;;;;;5075199;28;19908;-60
2021/07/15 07:44:56;;;;;;;;;;;23.10;99.90;;;;;;5093049;28;19995;-58
2021/07/15 07:47:21;;;;;;;;;;;23.30;99.90;;;;;;5093673;28;19912;-60
2021/07/15 07:49:47;;;;;;;;;;;23.40;99.90;;;;;;5093662;28;19916;-60
2021/07/15 07:52:12;;;;;;;;;;;23.40;99.90;;;;;;5093196;28;19908;-59
2021/07/15 07:54:38;;;;;;;;;;;23.50;99.90;;;;;;5092890;28;19912;-61
2021/07/15 07:57:03;;;;;;;;;;;23.70;99.90;;;;;;5093108;28;19908;-59
2021/07/15 07:59:28;;;;;;;;;;;23.70;99.90;;;;;;5092949;28;20287;-57
2021/07/15 08:01:54;;;;;;;;;;;24.00;99.90;;;;;;5093213;28;19919;-60
2021/07/15 08:04:19;;;;;;;;;;;24.30;99.90;;;;;;5093333;28;20328;-59
2021/07/15 08:06:46;;;;;;;;;;;24.70;99.90;;;;;;5093065;28;19908;-60
2021/07/15 08:09:15;;;;;;;;;;;25.00;99.90;;;;;;5074562;28;19912;-61
2021/07/15 08:11:44;;;;;;;;;;;25.10;99.90;;;;;;5074747;28;19914;-60
2021/07/15 08:14:09;;;;;;;;;;;25.50;99.90;;;;;;5074363;28;19919;-60
2021/07/15 08:16:35;;;;;;;;;;;25.80;99.90;;;;;;5092853;28;19912;-61
2021/07/15 08:19:00;;;;;;;;;;;25.90;99.90;;;;;;5092808;28;19951;-61
2021/07/15 08:21:26;;;;;;;;;;;25.90;99.90;;;;;;5092453;28;19912;-61
2021/07/15 08:23:51;;;;;;;;;;;25.50;99.90;;;;;;5092619;28;19962;-59
2021/07/15 08:26:17;;;;;;;;;;;25.30;99.90;;;;;;5092399;28;19908;-61
2021/07/15 08:28:43;;;;;;;;;;;25.20;99.90;;;;;;5092503;28;19915;-59
2021/07/15 08:31:08;;;;;;;;;;;25.10;99.90;;;;;;5092501;28;20434;-61
2021/07/15 08:33:34;;;;;;;;;;;25.10;99.90;;;;;;5092218;28;19908;-60
2021/07/15 08:35:59;;;;;;;;;;;24.90;99.90;;;;;;5092028;28;19919;-60
2021/07/15 08:38:25;;;;;;;;;;;24.80;99.90;;;;;;5073968;28;19966;-59
2021/07/15 08:40:50;;;;;;;;;;;24.80;99.90;;;;;;5092134;28;20690;-60
2021/07/15 08:43:16;;;;;;;;;;;24.80;99.90;;;;;;5092163;28;20296;-60
2021/07/15 08:45:43;;;;;;;;;;;24.90;99.90;;;;;;5091043;28;19954;-60
2021/07/15 08:48:10;;;;;;;;;;;25.00;99.90;;;;;;5092305;28;19908;-60
2021/07/15 08:50:36;;;;;;;;;;;25.30;99.90;;;;;;5092154;28;19916;-57
2021/07/15 08:53:01;;;;;;;;;;;25.50;99.90;;;;;;5091767;28;19915;-60
2021/07/15 08:58:15;;;;;;;;;;;25.80;99.90;;;;;;5091976;28;19927;-60
2021/07/15 09:00:41;;;;;;;;;;;26.10;99.90;;;;;;5091684;28;20452;-60
2021/07/15 09:03:07;;;;;;;;;;;26.40;99.90;;;;;;5073760;28;20429;-60
2021/07/15 09:05:33;;;;;;;;;;;26.60;99.90;;;;;;5091623;28;19908;-60
2021/07/15 09:07:59;;;;;;;;;;;26.90;99.90;;;;;;5091470;28;20389;-61
2021/07/15 09:10:24;;;;;;;;;;;27.10;99.90;;;;;;5091764;28;19912;-60
2021/07/15 09:12:50;;;;;;;;;;;27.30;99.90;;;;;;5091345;28;19908;-59
2021/07/15 09:15:15;;;;;;;;;;;27.40;99.90;;;;;;5091210;28;19915;-60
2021/07/15 09:17:41;;;;;;;;;;;27.70;99.90;;;;;;5091649;28;19916;-60
2021/07/15 09:20:08;;;;;;;;;;;27.90;99.90;;;;;;5091767;28;20024;-60
2021/07/15 09:22:34;;;;;;;;;;;28.20;99.90;;;;;;5091700;28;20622;-60
2021/07/15 09:25:00;;;;;;;;;;;28.30;99.90;;;;;;5091190;28;19990;-61
2021/07/15 09:27:27;;;;;;;;;;;28.50;99.90;;;;;;5091694;28;19908;-58
2021/07/15 09:30:04;;;;;;;;;;;28.80;99.90;;;;;;5092618;28;20358;-60
2021/07/15 09:32:30;;;;;;;;;;;29.00;99.90;;;;;;5091532;28;19962;-59
2021/07/15 09:35:05;;;;;;;;;;;29.20;99.90;;;;;;5090683;28;20346;-58
2021/07/15 09:37:34;;;;;;;;;;;29.00;99.90;;;;;;5085794;28;19930;-59
2021/07/15 09:40:00;;;;;;;;;;;29.00;99.90;;;;;;5091778;28;19919;-58
2021/07/15 09:42:25;;;;;;;;;;;28.70;99.90;;;;;;5091137;28;19987;-59
2021/07/15 09:44:51;;;;;;;;;;;28.50;99.90;;;;;;5090529;28;19958;-58
2021/07/15 09:47:38;;;;;;;;;;;28.10;99.90;;;;;;5090856;28;19971;-59
2021/07/15 09:50:16;;;;;;;;;;;27.90;99.90;;;;;;5091426;28;20436;-58
2021/07/15 09:52:42;;;;;;;;;;;27.80;99.90;;;;;;5086490;28;20298;-60
2021/07/15 09:55:17;;;;;;;;;;;27.70;99.90;;;;;;5072234;28;20370;-58
2021/07/15 09:57:43;;;;;;;;;;;27.50;99.90;;;;;;5089566;28;20282;-58
2021/07/15 10:00:09;;;;;;;;;;;27.60;99.90;;;;;;5090427;28;19912;-61
2021/07/15 10:02:34;;;;;;;;;;;27.70;99.90;;;;;;5090554;28;20007;-61
2021/07/15 10:05:00;;;;;;;;;;;27.80;99.90;;;;;;5090441;28;19958;-61
2021/07/15 10:07:25;;;;;;;;;;;27.90;99.90;;;;;;5072354;28;19908;-59
2021/07/15 10:10:10;;;;;;;;;;;27.70;99.90;;;;;;5090702;28;19918;-60
2021/07/15 10:12:35;;;;;;;;;;;27.50;99.90;;;;;;5090289;28;20332;-57
2021/07/15 10:15:07;;;;;;;;;;;27.50;99.90;;;;;;5089992;28;19909;-60
2021/07/15 10:17:39;;;;;;;;;;;27.30;99.90;;;;;;5090204;28;19916;-60
2021/07/15 10:20:12;;;;;;;;;;;27.20;99.90;;;;;;5090459;28;19908;-61
2021/07/15 10:22:37;;;;;;;;;;;26.90;99.90;;;;;;5090838;28;19908;-60
2021/07/15 10:25:03;;;;;;;;;;;26.70;99.90;;;;;;5089935;28;19966;-60
2021/07/15 10:27:29;;;;;;;;;;;26.60;99.90;;;;;;5090235;28;20011;-60
2021/07/15 10:29:57;;;;;;;;;;;26.60;99.90;;;;;;5072081;28;19909;-60
2021/07/15 10:32:24;;;;;;;;;;;26.70;99.90;;;;;;5072168;28;20007;-60
2021/07/15 10:34:52;;;;;;;;;;;26.80;99.90;;;;;;5089566;28;20290;-58
2021/07/15 10:37:19;;;;;;;;;;;26.80;99.90;;;;;;5089763;28;19995;-59
2021/07/15 10:39:45;;;;;;;;;;;26.80;99.90;;;;;;5090578;28;20010;-58
2021/07/15 10:42:11;;;;;;;;;;;27.00;99.90;;;;;;5090271;28;19912;-57
2021/07/15 10:44:36;;;;;;;;;;;27.30;99.90;;;;;;5090160;28;20334;-60
2021/07/15 10:47:02;;;;;;;;;;;27.70;99.90;;;;;;5089743;28;19995;-60
2021/07/15 10:49:28;;;;;;;;;;;28.00;99.90;;;;;;5090684;28;20585;-59
2021/07/15 10:51:56;;;;;;;;;;;28.30;99.90;;;;;;5077276;28;19908;-58
2021/07/15 10:54:22;;;;;;;;;;;28.60;99.90;;;;;;5090308;28;19912;-60
2021/07/15 10:56:48;;;;;;;;;;;28.10;99.90;;;;;;5090073;28;19961;-61
2021/07/15 10:59:21;;;;;;;;;;;27.60;99.90;;;;;;5071818;28;19912;-62
2021/07/15 11:01:46;;;;;;;;;;;27.50;99.90;;;;;;5089494;28;20611;-59
2021/07/15 11:04:12;;;;;;;;;;;27.30;99.90;;;;;;5089167;28;20007;-60
2021/07/15 11:07:01;;;;;;;;;;;27.00;99.90;;;;;;5089217;28;19916;-59
2021/07/15 11:09:28;;;;;;;;;;;26.90;99.90;;;;;;5090459;28;20003;-59
2021/07/15 11:11:55;;;;;;;;;;;27.00;99.90;;;;;;5093564;28;19912;-59
2021/07/15 11:14:56;;;;;;;;;;;27.30;99.90;;;;;;5093387;28;19912;-60
2021/07/15 11:17:21;;;;;;;;;;;27.50;99.90;;;;;;5026602;28;19918;-55
2021/07/15 11:19:55;;;;;;;;;;;27.80;99.90;;;;;;5079717;28;19922;-59
2021/07/15 11:22:32;;;;;;;;;;;28.10;99.90;;;;;;5068314;28;19922;-60
2021/07/15 11:25:01;;;;;;;;;;;28.40;99.90;;;;;;5093341;28;20083;-59
2021/07/15 11:27:31;;;;;;;;;;;28.40;99.90;;;;;;5093804;28;19934;-60
2021/07/15 11:29:57;;;;;;;;;;;28.10;99.90;;;;;;5093579;28;19934;-60
2021/07/15 11:32:26;;;;;;;;;;;28.00;99.90;;;;;;5093639;28;19924;-60
2021/07/15 11:34:54;;;;;;;;;;;28.00;99.90;;;;;;5093140;28;19908;-61
2021/07/15 11:37:25;;;;;;;;;;;27.80;99.90;;;;;;5093516;28;19957;-58
2021/07/15 11:39:53;;;;;;;;;;;27.60;99.90;;;;;;5093760;28;19908;-59
2021/07/15 11:42:20;;;;;;;;;;;27.70;99.90;;;;;;5093450;28;19934;-61
2021/07/15 11:45:05;;;;;;;;;;;27.60;99.90;;;;;;5075027;28;19908;-60
2021/07/15 11:47:52;;;;;;;;;;;27.40;99.90;;;;;;5074815;28;20285;-60
2021/07/15 11:50:26;;;;;;;;;;;27.10;99.90;;;;;;5087516;28;19908;-61
2021/07/15 11:53:12;;;;;;;;;;;27.00;99.90;;;;;;5093446;28;19908;-60
2021/07/15 11:55:37;;;;;;;;;;;27.00;99.90;;;;;;5092115;28;19954;-59
2021/07/15 11:58:03;;;;;;;;;;;26.90;99.90;;;;;;5093340;28;19959;-59
2021/07/15 12:00:28;;;;;;;;;;;26.90;99.90;;;;;;5092903;28;19944;-60
2021/07/15 12:02:55;;;;;;;;;;;26.90;99.90;;;;;;5092720;28;19912;-60
2021/07/15 12:05:33;;;;;;;;;;;27.00;99.90;;;;;;5092702;28;19908;-60
2021/07/15 12:08:07;;;;;;;;;;;26.80;99.90;;;;;;5092967;28;20376;-57
2021/07/15 12:10:38;;;;;;;;;;;26.70;99.90;;;;;;5093023;28;19916;-59
2021/07/15 12:13:05;;;;;;;;;;;27.00;99.90;;;;;;5092581;28;19914;-59
2021/07/15 12:15:31;;;;;;;;;;;27.30;99.90;;;;;;5091866;28;19908;-58
2021/07/15 12:17:58;;;;;;;;;;;27.60;99.90;;;;;;5092392;28;19923;-59
2021/07/15 12:20:25;;;;;;;;;;;28.00;99.90;;;;;;5073846;28;19916;-61
2021/07/15 12:22:54;;;;;;;;;;;28.30;99.90;;;;;;5093146;28;19908;-59
2021/07/15 12:25:22;;;;;;;;;;;28.60;99.90;;;;;;5092502;28;19985;-59
2021/07/15 12:27:49;;;;;;;;;;;28.80;99.90;;;;;;5092655;28;19909;-60
2021/07/15 12:30:15;;;;;;;;;;;28.80;99.90;;;;;;5089840;28;19912;-59
2021/07/15 12:32:51;;;;;;;;;;;29.10;99.90;;;;;;5092663;28;19920;-59
2021/07/15 12:35:16;;;;;;;;;;;29.30;99.90;;;;;;5089033;28;19914;-58
2021/07/15 12:37:42;;;;;;;;;;;29.40;99.90;;;;;;5092823;28;19908;-58
2021/07/15 12:40:08;;;;;;;;;;;29.30;99.90;;;;;;5092269;28;20062;-61
2021/07/15 12:42:35;;;;;;;;;;;29.10;99.90;;;;;;5073870;28;19919;-57
2021/07/15 12:45:13;;;;;;;;;;;28.90;99.90;;;;;;5092266;28;19955;-61
2021/07/15 12:47:39;;;;;;;;;;;29.00;99.90;;;;;;5087371;28;19916;-57
2021/07/15 12:50:05;;;;;;;;;;;29.10;99.90;;;;;;5092659;28;19908;-60
2021/07/15 12:52:31;;;;;;;;;;;29.20;99.90;;;;;;5092464;28;19915;-59
2021/07/15 12:54:57;;;;;;;;;;;29.20;99.90;;;;;;5091873;28;20015;-61
2021/07/15 12:57:22;;;;;;;;;;;29.10;99.90;;;;;;5092039;28;19996;-59
2021/07/15 12:59:48;;;;;;;;;;;29.20;99.90;;;;;;5092406;28;19912;-57
2021/07/15 13:02:14;;;;;;;;;;;29.40;99.90;;;;;;5090529;28;20068;-62
2021/07/15 13:04:40;;;;;;;;;;;29.40;99.90;;;;;;5091927;28;19913;-62
2021/07/15 13:07:08;;;;;;;;;;;29.40;99.90;;;;;;5074099;28;19915;-61
2021/07/15 13:09:45;;;;;;;;;;;29.60;99.90;;;;;;5092074;28;19908;-61
2021/07/15 13:15:05;;;;;;;;;;;29.70;99.80;;;;;;5089907;28;20285;-61
2021/07/15 13:17:35;;;;;;;;;;;29.70;99.90;;;;;;5080890;22;19989;-81
2021/07/15 13:20:27;;;;;;;;;;;29.90;98.70;;;;;;5075548;28;19917;-82
2021/07/15 13:22:54;;;;;;;;;;;30.00;99.90;;;;;;5071971;28;19916;-81
2021/07/15 13:25:23;;;;;;;;;;;30.00;99.40;;;;;;5074923;28;19924;-82
2021/07/15 13:27:49;;;;;;;;;;;30.10;99.10;;;;;;5075486;28;19908;-82
2021/07/15 13:30:21;;;;;;;;;;;30.30;99.10;;;;;;5072333;28;19927;-80
2021/07/15 13:32:46;;;;;;;;;;;30.30;99.10;;;;;;5075017;28;19961;-82
2021/07/15 13:35:13;;;;;;;;;;;30.40;99.40;;;;;;5074849;28;19908;-82
2021/07/15 13:37:39;;;;;;;;;;;30.60;98.50;;;;;;5093703;28;19908;-83
2021/07/15 13:40:24;;;;;;;;;;;30.80;99.10;;;;;;5074698;28;19908;-81
2021/07/15 13:42:50;;;;;;;;;;;31.00;98.70;;;;;;5092979;28;19918;-82
2021/07/15 13:45:22;;;;;;;;;;;31.00;96.80;;;;;;5075436;28;19998;-82
2021/07/15 13:47:47;;;;;;;;;;;31.00;96.30;;;;;;5078832;28;19912;-84
2021/07/15 13:50:21;;;;;;;;;;;31.00;97.00;;;;;;5074630;28;19958;-82
2021/07/15 13:52:50;;;;;;;;;;;31.00;97.40;;;;;;5071301;28;20057;-82
2021/07/15 13:55:16;;;;;;;;;;;30.90;96.50;;;;;;5069313;28;20790;-82
2021/07/15 13:57:46;;;;;;;;;;;30.70;97.40;;;;;;5098330;28;19908;-81
2021/07/15 14:00:19;;;;;;;;;;;30.70;96.60;;;;;;5074628;28;19987;-82
2021/07/15 14:02:46;;;;;;;;;;;30.50;96.80;;;;;;5092834;28;19908;-82
2021/07/15 14:05:11;;;;;;;;;;;30.50;96.90;;;;;;5092595;28;19912;-84
2021/07/15 14:07:37;;;;;;;;;;;30.50;97.40;;;;;;5076400;28;19908;-81
2021/07/15 14:10:10;;;;;;;;;;;30.50;97.10;;;;;;5083939;28;19908;-84
2021/07/15 14:12:38;;;;;;;;;;;30.20;96.50;;;;;;5102070;28;20285;-82
2021/07/15 14:15:03;;;;;;;;;;;30.10;96.30;;;;;;5079678;28;19908;-84
2021/07/15 14:17:29;;;;;;;;;;;29.90;95.10;;;;;;5077809;28;19923;-83
2021/07/15 14:19:55;;;;;;;;;;;29.70;96.20;;;;;;5077774;28;19964;-83
2021/07/15 14:22:24;;;;;;;;;;;29.60;95.10;;;;;;5077325;28;19920;-82
2021/07/15 14:24:50;;;;;;;;;;;29.40;96.10;;;;;;5102793;28;19909;-84